Santa Maria, Brazil
Current Conditions -  °F | °C
As of 12:00 AM on Sunday 23 Nov 2014 (Local Time) from SBSM Reporting Station
Few Clouds Few Clouds  
Wind Chill: 61°   Ceiling: Unl
Heat Index: 61°   Visibility: 6mi
Dew Point: 55°   Wind: 3mph
Humidity: 82%   Direction: 280°W
Pressure: 29.94"   Gusts: NA
Location:  29.69°S, 53.83°W
Report Text: SBSM 230200Z 28003KT 9999 FEW045 16/13 Q1014
Loading
Personal Weather Stations






























Interactive Weather Map New forecast layout! Learn more

10-Day Weather Forecast

Advertisements
Track Severe Weather on mobile